sensor_id;sensor_type;location;lat;lon;timestamp;temperature;humidity
13944;DHT22;7044;53.286;8.534;2023-11-21T00:02:14;9.50;99.90
13944;DHT22;7044;53.286;8.534;2023-11-21T00:04:41;9.50;99.90
13944;DHT22;7044;53.286;8.534;2023-11-21T00:07:09;9.50;99.90
13944;DHT22;7044;53.286;8.534;2023-11-21T00:09:36;9.50;99.90
13944;DHT22;7044;53.286;8.534;2023-11-21T00:12:04;9.60;99.90
13944;DHT22;7044;53.286;8.534;2023-11-21T00:14:31;9.50;99.90
13944;DHT22;7044;53.286;8.534;2023-11-21T00:16:59;9.60;99.90
13944;DHT22;7044;53.286;8.534;2023-11-21T00:21:53;9.50;99.90
13944;DHT22;7044;53.286;8.534;2023-11-21T00:24:22;9.00;99.90
13944;DHT22;7044;53.286;8.534;2023-11-21T00:26:50;9.50;99.90
13944;DHT22;7044;53.286;8.534;2023-11-21T00:29:17;9.50;99.90
13944;DHT22;7044;53.286;8.534;2023-11-21T00:31:43;9.50;99.90
13944;DHT22;7044;53.286;8.534;2023-11-21T00:34:11;9.60;99.90
13944;DHT22;7044;53.286;8.534;2023-11-21T00:36:38;9.50;99.90
13944;DHT22;7044;53.286;8.534;2023-11-21T00:39:05;9.50;99.90
13944;DHT22;7044;53.286;8.534;2023-11-21T00:41:33;9.60;99.90
13944;DHT22;7044;53.286;8.534;2023-11-21T00:44:02;9.70;99.90
13944;DHT22;7044;53.286;8.534;2023-11-21T00:46:28;9.50;99.90
13944;DHT22;7044;53.286;8.534;2023-11-21T00:48:56;9.60;99.90
13944;DHT22;7044;53.286;8.534;2023-11-21T00:51:23;9.60;99.90
13944;DHT22;7044;53.286;8.534;2023-11-21T00:53:50;9.50;99.90
13944;DHT22;7044;53.286;8.534;2023-11-21T00:56:17;9.50;99.90
13944;DHT22;7044;53.286;8.534;2023-11-21T00:58:45;9.50;99.90
13944;DHT22;7044;53.286;8.534;2023-11-21T01:01:15;9.50;99.90
13944;DHT22;7044;53.286;8.534;2023-11-21T01:03:42;9.50;99.90
13944;DHT22;7044;53.286;8.534;2023-11-21T01:06:09;9.50;99.90
13944;DHT22;7044;53.286;8.534;2023-11-21T01:08:35;9.50;99.90
13944;DHT22;7044;53.286;8.534;2023-11-21T01:13:30;9.80;99.90
13944;DHT22;7044;53.286;8.534;2023-11-21T01:15:58;9.20;99.90
13944;DHT22;7044;53.286;8.534;2023-11-21T01:18:25;9.50;99.90
13944;DHT22;7044;53.286;8.534;2023-11-21T01:20:52;9.50;99.90
13944;DHT22;7044;53.286;8.534;2023-11-21T01:23:19;9.50;99.90
13944;DHT22;7044;53.286;8.534;2023-11-21T01:25:46;9.70;99.90
13944;DHT22;7044;53.286;8.534;2023-11-21T01:28:13;9.60;99.90
13944;DHT22;7044;53.286;8.534;2023-11-21T01:30:40;9.60;99.90
13944;DHT22;7044;53.286;8.534;2023-11-21T01:33:08;9.60;99.90
13944;DHT22;7044;53.286;8.534;2023-11-21T01:35:35;9.60;99.90
13944;DHT22;7044;53.286;8.534;2023-11-21T01:38:02;9.60;99.90
13944;DHT22;7044;53.286;8.534;2023-11-21T01:40:29;9.60;99.90
13944;DHT22;7044;53.286;8.534;2023-11-21T01:42:56;9.60;99.90
13944;DHT22;7044;53.286;8.534;2023-11-21T01:45:23;9.60;99.90
13944;DHT22;7044;53.286;8.534;2023-11-21T01:47:51;9.60;99.90
13944;DHT22;7044;53.286;8.534;2023-11-21T01:50:20;9.50;99.90
13944;DHT22;7044;53.286;8.534;2023-11-21T01:52:48;9.60;99.90
13944;DHT22;7044;53.286;8.534;2023-11-21T01:55:16;9.60;99.90
13944;DHT22;7044;53.286;8.534;2023-11-21T01:57:45;9.60;99.90
13944;DHT22;7044;53.286;8.534;2023-11-21T02:00:13;10.60;99.90
13944;DHT22;7044;53.286;8.534;2023-11-21T02:02:42;9.60;99.90
13944;DHT22;7044;53.286;8.534;2023-11-21T02:05:10;9.60;99.90
13944;DHT22;7044;53.286;8.534;2023-11-21T02:07:37;9.60;99.90
13944;DHT22;7044;53.286;8.534;2023-11-21T02:10:05;9.60;99.90
13944;DHT22;7044;53.286;8.534;2023-11-21T02:12:32;9.60;99.90
13944;DHT22;7044;53.286;8.534;2023-11-21T02:14:59;9.70;99.90
13944;DHT22;7044;53.286;8.534;2023-11-21T02:17:26;9.60;99.90
13944;DHT22;7044;53.286;8.534;2023-11-21T02:19:53;9.60;99.90
13944;DHT22;7044;53.286;8.534;2023-11-21T02:22:19;9.20;99.90
13944;DHT22;7044;53.286;8.534;2023-11-21T02:24:49;9.60;99.90
13944;DHT22;7044;53.286;8.534;2023-11-21T02:27:16;9.60;99.90
13944;DHT22;7044;53.286;8.534;2023-11-21T02:29:47;9.60;99.90
13944;DHT22;7044;53.286;8.534;2023-11-21T02:32:14;9.50;99.90
13944;DHT22;7044;53.286;8.534;2023-11-21T02:34:42;9.60;99.90
13944;DHT22;7044;53.286;8.534;2023-11-21T02:37:09;9.50;99.90
13944;DHT22;7044;53.286;8.534;2023-11-21T02:39:36;9.50;99.90
13944;DHT22;7044;53.286;8.534;2023-11-21T02:42:05;9.30;99.90
13944;DHT22;7044;53.286;8.534;2023-11-21T02:44:31;9.40;99.90
13944;DHT22;7044;53.286;8.534;2023-11-21T02:46:58;9.30;99.90
13944;DHT22;7044;53.286;8.534;2023-11-21T02:49:25;9.30;99.90
13944;DHT22;7044;53.286;8.534;2023-11-21T02:51:53;9.40;99.90
13944;DHT22;7044;53.286;8.534;2023-11-21T02:54:21;9.30;99.90
13944;DHT22;7044;53.286;8.534;2023-11-21T02:56:48;9.30;99.90
13944;DHT22;7044;53.286;8.534;2023-11-21T02:59:17;9.10;99.90
13944;DHT22;7044;53.286;8.534;2023-11-21T03:01:45;9.30;99.90
13944;DHT22;7044;53.286;8.534;2023-11-21T03:04:12;9.40;99.90
13944;DHT22;7044;53.286;8.534;2023-11-21T03:06:43;9.20;99.90
13944;DHT22;7044;53.286;8.534;2023-11-21T03:09:10;9.30;99.90
13944;DHT22;7044;53.286;8.534;2023-11-21T03:11:37;9.30;99.90
13944;DHT22;7044;53.286;8.534;2023-11-21T03:14:04;9.20;99.90
13944;DHT22;7044;53.286;8.534;2023-11-21T03:16:33;9.20;99.90
13944;DHT22;7044;53.286;8.534;2023-11-21T03:19:00;9.20;99.90
13944;DHT22;7044;53.286;8.534;2023-11-21T03:21:27;9.20;99.90
13944;DHT22;7044;53.286;8.534;2023-11-21T03:23:54;9.20;99.90
13944;DHT22;7044;53.286;8.534;2023-11-21T03:26:21;9.10;99.90
13944;DHT22;7044;53.286;8.534;2023-11-21T03:28:48;9.20;99.90
13944;DHT22;7044;53.286;8.534;2023-11-21T03:31:15;10.40;99.90
13944;DHT22;7044;53.286;8.534;2023-11-21T03:33:45;9.20;99.90
13944;DHT22;7044;53.286;8.534;2023-11-21T03:36:13;9.30;99.90
13944;DHT22;7044;53.286;8.534;2023-11-21T03:38:41;9.10;99.90
13944;DHT22;7044;53.286;8.534;2023-11-21T03:41:08;9.20;99.90
13944;DHT22;7044;53.286;8.534;2023-11-21T03:43:36;9.20;99.90
13944;DHT22;7044;53.286;8.534;2023-11-21T03:46:03;9.10;99.90
13944;DHT22;7044;53.286;8.534;2023-11-21T03:48:30;9.00;99.90
13944;DHT22;7044;53.286;8.534;2023-11-21T03:51:00;9.00;99.90
13944;DHT22;7044;53.286;8.534;2023-11-21T03:53:26;10.30;99.90
13944;DHT22;7044;53.286;8.534;2023-11-21T03:55:53;9.00;99.90
13944;DHT22;7044;53.286;8.534;2023-11-21T03:58:20;9.00;99.90
13944;DHT22;7044;53.286;8.534;2023-11-21T04:00:47;9.00;99.90
13944;DHT22;7044;53.286;8.534;2023-11-21T04:03:14;8.90;99.90
13944;DHT22;7044;53.286;8.534;2023-11-21T04:05:41;8.90;99.90
13944;DHT22;7044;53.286;8.534;2023-11-21T04:08:09;9.40;99.90
13944;DHT22;7044;53.286;8.534;2023-11-21T04:10:36;8.90;99.90
13944;DHT22;7044;53.286;8.534;2023-11-21T04:13:05;8.80;99.90
13944;DHT22;7044;53.286;8.534;2023-11-21T04:15:32;8.90;99.90
13944;DHT22;7044;53.286;8.534;2023-11-21T04:17:58;8.80;99.90
13944;DHT22;7044;53.286;8.534;2023-11-21T04:20:25;8.80;99.90
13944;DHT22;7044;53.286;8.534;2023-11-21T04:22:52;8.80;99.90
13944;DHT22;7044;53.286;8.534;2023-11-21T04:25:20;9.00;99.90
13944;DHT22;7044;53.286;8.534;2023-11-21T04:27:48;8.80;99.90
13944;DHT22;7044;53.286;8.534;2023-11-21T04:30:15;8.80;99.90
13944;DHT22;7044;53.286;8.534;2023-11-21T04:32:42;8.80;99.90
13944;DHT22;7044;53.286;8.534;2023-11-21T04:35:09;8.70;99.90
13944;DHT22;7044;53.286;8.534;2023-11-21T04:37:36;8.60;99.90
13944;DHT22;7044;53.286;8.534;2023-11-21T04:40:03;7.80;99.90
13944;DHT22;7044;53.286;8.534;2023-11-21T04:42:34;8.60;99.90
13944;DHT22;7044;53.286;8.534;2023-11-21T04:45:01;8.50;99.90
13944;DHT22;7044;53.286;8.534;2023-11-21T04:47:30;8.50;99.90
13944;DHT22;7044;53.286;8.534;2023-11-21T04:49:57;8.70;99.90
13944;DHT22;7044;53.286;8.534;2023-11-21T04:52:24;8.50;99.90
13944;DHT22;7044;53.286;8.534;2023-11-21T04:54:51;8.50;99.90
13944;DHT22;7044;53.286;8.534;2023-11-21T04:57:20;8.60;99.90
13944;DHT22;7044;53.286;8.534;2023-11-21T04:59:48;8.40;99.90
13944;DHT22;7044;53.286;8.534;2023-11-21T05:02:16;8.50;99.90
13944;DHT22;7044;53.286;8.534;2023-11-21T05:04:45;8.50;99.90
13944;DHT22;7044;53.286;8.534;2023-11-21T05:07:12;8.50;99.90
13944;DHT22;7044;53.286;8.534;2023-11-21T05:09:41;8.50;99.90
13944;DHT22;7044;53.286;8.534;2023-11-21T05:12:09;8.50;99.90
13944;DHT22;7044;53.286;8.534;2023-11-21T05:14:36;8.60;99.90
13944;DHT22;7044;53.286;8.534;2023-11-21T05:17:04;8.20;99.90
13944;DHT22;7044;53.286;8.534;2023-11-21T05:19:33;8.40;99.90
13944;DHT22;7044;53.286;8.534;2023-11-21T05:22:00;8.40;99.90
13944;DHT22;7044;53.286;8.534;2023-11-21T05:24:27;8.30;99.90
13944;DHT22;7044;53.286;8.534;2023-11-21T05:26:54;8.40;99.90
13944;DHT22;7044;53.286;8.534;2023-11-21T05:29:22;8.40;99.90
13944;DHT22;7044;53.286;8.534;2023-11-21T05:31:49;8.30;99.90
13944;DHT22;7044;53.286;8.534;2023-11-21T05:34:17;8.20;99.90
13944;DHT22;7044;53.286;8.534;2023-11-21T05:36:44;8.20;99.90
13944;DHT22;7044;53.286;8.534;2023-11-21T05:39:12;8.20;99.90
13944;DHT22;7044;53.286;8.534;2023-11-21T05:41:39;8.30;99.90
13944;DHT22;7044;53.286;8.534;2023-11-21T05:44:06;8.30;99.90
13944;DHT22;7044;53.286;8.534;2023-11-21T05:46:33;8.20;99.90
13944;DHT22;7044;53.286;8.534;2023-11-21T05:49:00;8.20;99.90
13944;DHT22;7044;53.286;8.534;2023-11-21T05:51:28;8.20;99.90
13944;DHT22;7044;53.286;8.534;2023-11-21T05:53:55;8.20;99.90
13944;DHT22;7044;53.286;8.534;2023-11-21T05:58:49;8.10;99.90
13944;DHT22;7044;53.286;8.534;2023-11-21T06:01:17;8.10;99.90
13944;DHT22;7044;53.286;8.534;2023-11-21T06:03:44;8.10;99.90
13944;DHT22;7044;53.286;8.534;2023-11-21T06:06:11;8.10;99.90
13944;DHT22;7044;53.286;8.534;2023-11-21T06:08:39;8.10;99.90
13944;DHT22;7044;53.286;8.534;2023-11-21T06:11:06;8.20;99.90
13944;DHT22;7044;53.286;8.534;2023-11-21T06:13:33;6.90;99.90
13944;DHT22;7044;53.286;8.534;2023-11-21T06:16:00;8.10;99.90
13944;DHT22;7044;53.286;8.534;2023-11-21T06:18:26;8.10;99.90
13944;DHT22;7044;53.286;8.534;2023-11-21T06:23:20;8.40;99.90
13944;DHT22;7044;53.286;8.534;2023-11-21T06:25:48;8.30;99.90
13944;DHT22;7044;53.286;8.534;2023-11-21T06:30:43;8.10;99.90
13944;DHT22;7044;53.286;8.534;2023-11-21T06:33:10;8.00;99.90
13944;DHT22;7044;53.286;8.534;2023-11-21T06:35:37;7.90;99.90
13944;DHT22;7044;53.286;8.534;2023-11-21T06:38:05;8.20;99.90
13944;DHT22;7044;53.286;8.534;2023-11-21T06:40:32;8.10;99.90
13944;DHT22;7044;53.286;8.534;2023-11-21T06:43:01;8.10;99.90
13944;DHT22;7044;53.286;8.534;2023-11-21T06:45:28;7.00;99.90
13944;DHT22;7044;53.286;8.534;2023-11-21T06:47:56;7.90;99.90
13944;DHT22;7044;53.286;8.534;2023-11-21T06:50:22;8.00;99.90
13944;DHT22;7044;53.286;8.534;2023-11-21T06:52:49;7.90;99.90
13944;DHT22;7044;53.286;8.534;2023-11-21T06:55:16;7.10;99.90
13944;DHT22;7044;53.286;8.534;2023-11-21T06:57:43;8.10;99.90
13944;DHT22;7044;53.286;8.534;2023-11-21T07:00:12;8.00;99.90
13944;DHT22;7044;53.286;8.534;2023-11-21T07:02:40;8.00;99.90
13944;DHT22;7044;53.286;8.534;2023-11-21T07:05:07;7.90;99.90
13944;DHT22;7044;53.286;8.534;2023-11-21T07:07:34;7.90;99.90
13944;DHT22;7044;53.286;8.534;2023-11-21T07:10:03;7.70;99.90
13944;DHT22;7044;53.286;8.534;2023-11-21T07:12:31;7.70;99.90
13944;DHT22;7044;53.286;8.534;2023-11-21T07:14:58;7.70;99.90
13944;DHT22;7044;53.286;8.534;2023-11-21T07:17:26;7.50;99.90
13944;DHT22;7044;53.286;8.534;2023-11-21T07:19:53;7.70;99.90
13944;DHT22;7044;53.286;8.534;2023-11-21T07:22:20;7.70;99.90
13944;DHT22;7044;53.286;8.534;2023-11-21T07:24:48;7.70;99.90
13944;DHT22;7044;53.286;8.534;2023-11-21T07:27:16;7.60;99.90
13944;DHT22;7044;53.286;8.534;2023-11-21T07:29:43;7.70;99.90
13944;DHT22;7044;53.286;8.534;2023-11-21T07:32:10;7.90;99.90
13944;DHT22;7044;53.286;8.534;2023-11-21T07:34:39;7.80;99.90
13944;DHT22;7044;53.286;8.534;2023-11-21T07:37:06;7.70;99.90
13944;DHT22;7044;53.286;8.534;2023-11-21T07:39:34;7.70;99.90
13944;DHT22;7044;53.286;8.534;2023-11-21T07:42:01;7.70;99.90
13944;DHT22;7044;53.286;8.534;2023-11-21T07:44:28;8.10;99.90
13944;DHT22;7044;53.286;8.534;2023-11-21T07:49:23;8.00;99.90
13944;DHT22;7044;53.286;8.534;2023-11-21T07:51:51;7.80;99.90
13944;DHT22;7044;53.286;8.534;2023-11-21T07:54:18;7.80;99.90
13944;DHT22;7044;53.286;8.534;2023-11-21T07:56:45;7.30;99.90
13944;DHT22;7044;53.286;8.534;2023-11-21T07:59:11;7.70;99.90
13944;DHT22;7044;53.286;8.534;2023-11-21T08:01:39;7.70;99.90
13944;DHT22;7044;53.286;8.534;2023-11-21T08:04:08;7.70;99.90
13944;DHT22;7044;53.286;8.534;2023-11-21T08:06:35;7.70;99.90
13944;DHT22;7044;53.286;8.534;2023-11-21T08:09:03;7.50;99.90
13944;DHT22;7044;53.286;8.534;2023-11-21T08:11:30;7.70;99.90
13944;DHT22;7044;53.286;8.534;2023-11-21T08:13:58;7.80;99.90
13944;DHT22;7044;53.286;8.534;2023-11-21T08:16:25;7.80;99.90
13944;DHT22;7044;53.286;8.534;2023-11-21T08:18:53;7.70;99.90
13944;DHT22;7044;53.286;8.534;2023-11-21T08:21:20;7.70;99.90
13944;DHT22;7044;53.286;8.534;2023-11-21T08:23:46;7.70;99.90
13944;DHT22;7044;53.286;8.534;2023-11-21T08:26:20;7.70;99.90
13944;DHT22;7044;53.286;8.534;2023-11-21T08:28:47;7.80;99.90
13944;DHT22;7044;53.286;8.534;2023-11-21T08:31:14;7.70;99.90
13944;DHT22;7044;53.286;8.534;2023-11-21T08:33:41;7.60;99.90
13944;DHT22;7044;53.286;8.534;2023-11-21T08:36:08;7.70;99.90
13944;DHT22;7044;53.286;8.534;2023-11-21T08:38:36;7.70;99.90
13944;DHT22;7044;53.286;8.534;2023-11-21T08:41:05;7.70;99.90
13944;DHT22;7044;53.286;8.534;2023-11-21T08:43:34;7.70;99.90
13944;DHT22;7044;53.286;8.534;2023-11-21T08:46:05;7.70;99.90
13944;DHT22;7044;53.286;8.534;2023-11-21T08:48:35;7.70;99.90
13944;DHT22;7044;53.286;8.534;2023-11-21T08:51:02;7.80;99.90
13944;DHT22;7044;53.286;8.534;2023-11-21T08:53:29;7.70;99.90
13944;DHT22;7044;53.286;8.534;2023-11-21T08:55:56;7.70;99.90
13944;DHT22;7044;53.286;8.534;2023-11-21T08:58:23;8.60;99.90
13944;DHT22;7044;53.286;8.534;2023-11-21T09:00:51;8.50;99.90
13944;DHT22;7044;53.286;8.534;2023-11-21T09:03:18;7.80;99.90
13944;DHT22;7044;53.286;8.534;2023-11-21T09:05:44;7.90;99.90
13944;DHT22;7044;53.286;8.534;2023-11-21T09:08:11;7.50;99.90
13944;DHT22;7044;53.286;8.534;2023-11-21T09:10:38;7.90;99.90
13944;DHT22;7044;53.286;8.534;2023-11-21T09:13:05;8.00;99.90
13944;DHT22;7044;53.286;8.534;2023-11-21T09:15:35;7.90;99.90
13944;DHT22;7044;53.286;8.534;2023-11-21T09:18:04;8.30;99.90
13944;DHT22;7044;53.286;8.534;2023-11-21T09:22:58;7.90;99.90
13944;DHT22;7044;53.286;8.534;2023-11-21T09:25:25;7.90;99.90
13944;DHT22;7044;53.286;8.534;2023-11-21T09:27:54;7.90;99.90
13944;DHT22;7044;53.286;8.534;2023-11-21T09:30:21;7.90;99.90
13944;DHT22;7044;53.286;8.534;2023-11-21T09:32:50;7.90;99.90
13944;DHT22;7044;53.286;8.534;2023-11-21T09:35:18;7.90;99.90
13944;DHT22;7044;53.286;8.534;2023-11-21T09:40:12;7.90;99.90
13944;DHT22;7044;53.286;8.534;2023-11-21T09:42:46;8.10;99.90
13944;DHT22;7044;53.286;8.534;2023-11-21T09:45:21;7.50;99.90
13944;DHT22;7044;53.286;8.534;2023-11-21T09:47:52;7.90;99.90
13944;DHT22;7044;53.286;8.534;2023-11-21T09:50:21;7.80;99.90
13944;DHT22;7044;53.286;8.534;2023-11-21T09:52:54;7.90;99.90
13944;DHT22;7044;53.286;8.534;2023-11-21T09:55:43;8.10;99.90
13944;DHT22;7044;53.286;8.534;2023-11-21T09:58:10;8.10;99.90
13944;DHT22;7044;53.286;8.534;2023-11-21T10:00:40;8.10;99.90
13944;DHT22;7044;53.286;8.534;2023-11-21T10:03:07;8.00;99.90
13944;DHT22;7044;53.286;8.534;2023-11-21T10:05:36;8.10;99.90
13944;DHT22;7044;53.286;8.534;2023-11-21T10:08:06;8.10;99.90
13944;DHT22;7044;53.286;8.534;2023-11-21T10:10:33;8.10;99.90
13944;DHT22;7044;53.286;8.534;2023-11-21T10:13:03;8.20;99.90
13944;DHT22;7044;53.286;8.534;2023-11-21T10:15:33;8.20;99.90
13944;DHT22;7044;53.286;8.534;2023-11-21T10:18:02;8.50;99.90
13944;DHT22;7044;53.286;8.534;2023-11-21T10:20:30;8.00;99.90
13944;DHT22;7044;53.286;8.534;2023-11-21T10:23:00;8.20;99.90
13944;DHT22;7044;53.286;8.534;2023-11-21T10:25:29;8.30;99.90
13944;DHT22;7044;53.286;8.534;2023-11-21T10:27:58;8.30;99.90
13944;DHT22;7044;53.286;8.534;2023-11-21T10:30:29;8.30;99.90
13944;DHT22;7044;53.286;8.534;2023-11-21T10:32:59;8.30;99.90
13944;DHT22;7044;53.286;8.534;2023-11-21T10:35:39;8.30;99.90
13944;DHT22;7044;53.286;8.534;2023-11-21T10:38:07;8.30;99.90
13944;DHT22;7044;53.286;8.534;2023-11-21T10:40:38;8.20;99.90
13944;DHT22;7044;53.286;8.534;2023-11-21T10:43:07;8.20;99.90
13944;DHT22;7044;53.286;8.534;2023-11-21T10:45:36;8.20;99.90
13944;DHT22;7044;53.286;8.534;2023-11-21T10:48:05;7.80;99.90
13944;DHT22;7044;53.286;8.534;2023-11-21T10:50:34;8.20;99.90
13944;DHT22;7044;53.286;8.534;2023-11-21T10:53:02;8.30;99.90
13944;DHT22;7044;53.286;8.534;2023-11-21T10:55:31;8.20;99.90
13944;DHT22;7044;53.286;8.534;2023-11-21T10:57:59;8.20;99.90
13944;DHT22;7044;53.286;8.534;2023-11-21T11:00:27;8.20;99.90
13944;DHT22;7044;53.286;8.534;2023-11-21T11:02:55;8.30;99.90
13944;DHT22;7044;53.286;8.534;2023-11-21T11:05:23;8.30;99.90
13944;DHT22;7044;53.286;8.534;2023-11-21T11:07:55;8.10;99.90
13944;DHT22;7044;53.286;8.534;2023-11-21T11:10:25;8.10;99.90
13944;DHT22;7044;53.286;8.534;2023-11-21T11:12:54;7.70;99.90
13944;DHT22;7044;53.286;8.534;2023-11-21T11:15:21;8.10;99.90
13944;DHT22;7044;53.286;8.534;2023-11-21T11:17:48;8.30;99.90
13944;DHT22;7044;53.286;8.534;2023-11-21T11:20:16;8.10;99.90
13944;DHT22;7044;53.286;8.534;2023-11-21T11:22:54;8.10;99.90
13944;DHT22;7044;53.286;8.534;2023-11-21T11:25:38;8.10;99.90
13944;DHT22;7044;53.286;8.534;2023-11-21T11:28:12;8.30;99.90
13944;DHT22;7044;53.286;8.534;2023-11-21T11:30:47;8.10;99.90
13944;DHT22;7044;53.286;8.534;2023-11-21T11:33:24;5.90;99.90
13944;DHT22;7044;53.286;8.534;2023-11-21T11:35:56;8.10;99.90
13944;DHT22;7044;53.286;8.534;2023-11-21T11:38:23;8.00;99.90
13944;DHT22;7044;53.286;8.534;2023-11-21T11:40:53;8.00;99.90
13944;DHT22;7044;53.286;8.534;2023-11-21T11:43:28;8.10;99.90
13944;DHT22;7044;53.286;8.534;2023-11-21T11:45:56;7.90;99.90
13944;DHT22;7044;53.286;8.534;2023-11-21T11:48:25;8.10;99.90
13944;DHT22;7044;53.286;8.534;2023-11-21T11:51:01;7.90;99.90
13944;DHT22;7044;53.286;8.534;2023-11-21T11:53:34;8.00;99.90
13944;DHT22;7044;53.286;8.534;2023-11-21T11:56:21;8.00;99.90
13944;DHT22;7044;53.286;8.534;2023-11-21T11:58:51;8.10;99.90
13944;DHT22;7044;53.286;8.534;2023-11-21T12:01:19;8.30;99.90
13944;DHT22;7044;53.286;8.534;2023-11-21T12:04:23;8.10;99.90
13944;DHT22;7044;53.286;8.534;2023-11-21T12:06:51;8.20;99.90
13944;DHT22;7044;53.286;8.534;2023-11-21T12:09:19;8.10;99.90
13944;DHT22;7044;53.286;8.534;2023-11-21T12:11:47;8.10;99.90
13944;DHT22;7044;53.286;8.534;2023-11-21T12:14:15;8.60;99.90
13944;DHT22;7044;53.286;8.534;2023-11-21T12:16:43;8.00;99.90
13944;DHT22;7044;53.286;8.534;2023-11-21T12:19:10;8.10;99.90
13944;DHT22;7044;53.286;8.534;2023-11-21T12:21:38;8.10;99.90
13944;DHT22;7044;53.286;8.534;2023-11-21T12:24:07;8.10;99.90
13944;DHT22;7044;53.286;8.534;2023-11-21T12:26:34;8.10;99.90
13944;DHT22;7044;53.286;8.534;2023-11-21T12:29:01;8.00;99.90
13944;DHT22;7044;53.286;8.534;2023-11-21T12:31:31;8.30;99.90
13944;DHT22;7044;53.286;8.534;2023-11-21T12:33:58;8.70;99.90
13944;DHT22;7044;53.286;8.534;2023-11-21T12:36:25;8.20;99.90
13944;DHT22;7044;53.286;8.534;2023-11-21T12:38:54;8.20;99.90
13944;DHT22;7044;53.286;8.534;2023-11-21T12:41:21;8.60;99.90
13944;DHT22;7044;53.286;8.534;2023-11-21T12:43:48;8.30;99.90
13944;DHT22;7044;53.286;8.534;2023-11-21T12:46:15;8.30;99.90
13944;DHT22;7044;53.286;8.534;2023-11-21T12:48:44;8.90;99.90
13944;DHT22;7044;53.286;8.534;2023-11-21T12:51:12;9.00;99.90
13944;DHT22;7044;53.286;8.534;2023-11-21T12:53:40;9.60;99.90
13944;DHT22;7044;53.286;8.534;2023-11-21T12:56:09;9.20;99.90
13944;DHT22;7044;53.286;8.534;2023-11-21T12:58:36;8.90;99.90
13944;DHT22;7044;53.286;8.534;2023-11-21T13:01:05;8.70;99.90
13944;DHT22;7044;53.286;8.534;2023-11-21T13:03:37;8.50;99.90
13944;DHT22;7044;53.286;8.534;2023-11-21T13:06:07;8.50;99.90
13944;DHT22;7044;53.286;8.534;2023-11-21T13:08:34;8.50;99.90
13944;DHT22;7044;53.286;8.534;2023-11-21T13:11:05;8.40;99.90
13944;DHT22;7044;53.286;8.534;2023-11-21T13:13:32;8.30;99.90
13944;DHT22;7044;53.286;8.534;2023-11-21T13:16:00;8.30;99.90
13944;DHT22;7044;53.286;8.534;2023-11-21T13:18:30;8.30;99.90
13944;DHT22;7044;53.286;8.534;2023-11-21T13:20:59;8.30;99.90
13944;DHT22;7044;53.286;8.534;2023-11-21T13:23:29;8.30;99.90
13944;DHT22;7044;53.286;8.534;2023-11-21T13:26:01;9.40;99.90
13944;DHT22;7044;53.286;8.534;2023-11-21T13:28:29;8.30;99.90
13944;DHT22;7044;53.286;8.534;2023-11-21T13:30:58;8.30;99.90
13944;DHT22;7044;53.286;8.534;2023-11-21T13:33:28;8.40;99.90
13944;DHT22;7044;53.286;8.534;2023-11-21T13:35:55;8.40;99.90
13944;DHT22;7044;53.286;8.534;2023-11-21T13:38:23;8.50;99.90
13944;DHT22;7044;53.286;8.534;2023-11-21T13:40:52;8.50;99.90
13944;DHT22;7044;53.286;8.534;2023-11-21T13:43:21;8.50;99.90
13944;DHT22;7044;53.286;8.534;2023-11-21T13:45:49;8.40;99.90
13944;DHT22;7044;53.286;8.534;2023-11-21T13:48:26;8.40;99.90
13944;DHT22;7044;53.286;8.534;2023-11-21T13:50:59;8.40;99.90
13944;DHT22;7044;53.286;8.534;2023-11-21T13:53:36;8.30;99.90
13944;DHT22;7044;53.286;8.534;2023-11-21T13:56:06;8.40;99.90
13944;DHT22;7044;53.286;8.534;2023-11-21T13:58:34;8.50;99.90
13944;DHT22;7044;53.286;8.534;2023-11-21T14:01:10;7.00;99.90
13944;DHT22;7044;53.286;8.534;2023-11-21T14:03:50;8.40;99.90
13944;DHT22;7044;53.286;8.534;2023-11-21T14:06:23;8.40;99.90
13944;DHT22;7044;53.286;8.534;2023-11-21T14:08:55;8.40;99.90
13944;DHT22;7044;53.286;8.534;2023-11-21T14:11:24;8.30;99.90
13944;DHT22;7044;53.286;8.534;2023-11-21T14:13:51;8.30;99.90
13944;DHT22;7044;53.286;8.534;2023-11-21T14:16:18;8.30;99.90
13944;DHT22;7044;53.286;8.534;2023-11-21T14:18:44;8.20;99.90
13944;DHT22;7044;53.286;8.534;2023-11-21T14:21:21;8.40;99.90
13944;DHT22;7044;53.286;8.534;2023-11-21T14:23:48;8.00;99.90
13944;DHT22;7044;53.286;8.534;2023-11-21T14:26:15;8.10;99.90
13944;DHT22;7044;53.286;8.534;2023-11-21T14:28:43;8.10;99.90
13944;DHT22;7044;53.286;8.534;2023-11-21T14:31:10;8.10;99.90
13944;DHT22;7044;53.286;8.534;2023-11-21T14:33:42;8.00;99.90
13944;DHT22;7044;53.286;8.534;2023-11-21T14:36:09;8.00;99.90
13944;DHT22;7044;53.286;8.534;2023-11-21T14:38:36;8.30;99.90
13944;DHT22;7044;53.286;8.534;2023-11-21T14:41:05;8.00;99.90
13944;DHT22;7044;53.286;8.534;2023-11-21T14:43:33;8.00;99.90
13944;DHT22;7044;53.286;8.534;2023-11-21T14:46:02;7.90;99.90
13944;DHT22;7044;53.286;8.534;2023-11-21T14:48:32;7.80;99.90
13944;DHT22;7044;53.286;8.534;2023-11-21T14:51:08;7.80;99.90
13944;DHT22;7044;53.286;8.534;2023-11-21T14:53:53;7.80;99.90
13944;DHT22;7044;53.286;8.534;2023-11-21T14:56:19;7.80;99.90
13944;DHT22;7044;53.286;8.534;2023-11-21T14:58:52;7.80;99.90
13944;DHT22;7044;53.286;8.534;2023-11-21T15:01:20;7.80;99.90
13944;DHT22;7044;53.286;8.534;2023-11-21T15:03:59;7.80;99.90
13944;DHT22;7044;53.286;8.534;2023-11-21T15:06:25;7.70;99.90
13944;DHT22;7044;53.286;8.534;2023-11-21T15:08:57;7.80;99.90
13944;DHT22;7044;53.286;8.534;2023-11-21T15:11:46;7.70;99.90
13944;DHT22;7044;53.286;8.534;2023-11-21T15:14:13;7.80;99.90
13944;DHT22;7044;53.286;8.534;2023-11-21T15:16:46;7.00;99.90
13944;DHT22;7044;53.286;8.534;2023-11-21T15:19:17;7.70;99.90
13944;DHT22;7044;53.286;8.534;2023-11-21T15:21:50;7.50;99.90
13944;DHT22;7044;53.286;8.534;2023-11-21T15:24:17;7.70;99.90
13944;DHT22;7044;53.286;8.534;2023-11-21T15:26:43;7.70;99.90
13944;DHT22;7044;53.286;8.534;2023-11-21T15:29:10;7.60;99.90
13944;DHT22;7044;53.286;8.534;2023-11-21T15:31:38;7.40;99.90
13944;DHT22;7044;53.286;8.534;2023-11-21T15:34:10;7.50;99.90
13944;DHT22;7044;53.286;8.534;2023-11-21T15:36:37;7.30;99.90
13944;DHT22;7044;53.286;8.534;2023-11-21T15:39:04;7.30;99.90
13944;DHT22;7044;53.286;8.534;2023-11-21T15:41:33;6.50;99.90
13944;DHT22;7044;53.286;8.534;2023-11-21T15:46:27;7.30;99.90
13944;DHT22;7044;53.286;8.534;2023-11-21T15:48:53;7.40;99.90
13944;DHT22;7044;53.286;8.534;2023-11-21T15:51:22;7.60;99.90
13944;DHT22;7044;53.286;8.534;2023-11-21T15:53:49;7.20;99.90
13944;DHT22;7044;53.286;8.534;2023-11-21T15:56:15;7.20;99.90
13944;DHT22;7044;53.286;8.534;2023-11-21T15:58:43;7.10;99.90
13944;DHT22;7044;53.286;8.534;2023-11-21T16:01:11;7.10;99.90
13944;DHT22;7044;53.286;8.534;2023-11-21T16:03:38;7.10;99.90
13944;DHT22;7044;53.286;8.534;2023-11-21T16:06:05;7.00;99.90
13944;DHT22;7044;53.286;8.534;2023-11-21T16:08:36;7.00;99.90
13944;DHT22;7044;53.286;8.534;2023-11-21T16:11:04;6.90;99.90
13944;DHT22;7044;53.286;8.534;2023-11-21T16:13:31;6.90;99.90
13944;DHT22;7044;53.286;8.534;2023-11-21T16:15:59;6.90;99.90
13944;DHT22;7044;53.286;8.534;2023-11-21T16:18:26;6.90;99.90
13944;DHT22;7044;53.286;8.534;2023-11-21T16:20:53;6.90;99.90
13944;DHT22;7044;53.286;8.534;2023-11-21T16:23:20;6.90;99.90
13944;DHT22;7044;53.286;8.534;2023-11-21T16:25:48;6.80;99.90
13944;DHT22;7044;53.286;8.534;2023-11-21T16:28:20;6.90;99.90
13944;DHT22;7044;53.286;8.534;2023-11-21T16:30:47;6.90;99.90
13944;DHT22;7044;53.286;8.534;2023-11-21T16:33:15;6.90;99.90